Time;durP1;ratioP1;P1;durP2;ratioP2;P2;SDS_P1;SDS_P2;PMS_P1;PMS_P2;Temp;Humidity;BMP_temperature;BMP_pressure;BME280_temperature;BME280_humidity;BME280_pressure;Samples;Min_cycle;Max_cycle;Signal;HPM_P1;HPM_P2
2021/12/28 00:00:08;;;;;;;23.48;15.07;;;3.80;99.90;;;;;;4964334;28;20070;-75
2021/12/28 00:02:34;;;;;;;22.33;14.60;;;3.80;99.90;;;;;;4620106;28;10000326;-75
2021/12/28 00:05:00;;;;;;;21.55;14.48;;;3.80;99.90;;;;;;4965436;28;20043;-75
2021/12/28 00:07:25;;;;;;;22.65;15.07;;;3.80;99.90;;;;;;4965746;28;20035;-75
2021/12/28 00:09:51;;;;;;;22.65;15.38;;;3.70;99.90;;;;;;4968127;28;20038;-74
2021/12/28 00:12:17;;;;;;;22.23;14.25;;;3.70;99.90;;;;;;4968429;28;20031;-75
2021/12/28 00:14:50;;;;;;;21.00;15.20;;;3.80;99.90;;;;;;4964697;28;20183;-75
2021/12/28 00:20:00;;;;;;;17.95;13.18;;;3.80;99.90;;;;;;4955029;28;20407;-75
2021/12/28 00:22:26;;;;;;;18.52;13.18;;;3.80;99.90;;;;;;4957756;28;20024;-76
2021/12/28 00:24:52;;;;;;;18.65;12.95;;;3.80;99.90;;;;;;4967973;28;20042;-75
2021/12/28 00:27:17;;;;;;;17.92;12.45;;;3.80;99.90;;;;;;4968228;28;20511;-75
2021/12/28 00:29:43;;;;;;;18.23;12.43;;;3.80;99.90;;;;;;4967625;28;20563;-75
2021/12/28 00:32:09;;;;;;;19.50;12.55;;;3.80;99.90;;;;;;4963109;28;20494;-75
2021/12/28 00:34:35;;;;;;;17.88;12.65;;;3.80;99.90;;;;;;4958391;28;20522;-75
2021/12/28 00:37:01;;;;;;;17.63;12.32;;;3.80;99.90;;;;;;4968829;28;20404;-76
2021/12/28 00:39:27;;;;;;;16.25;11.43;;;3.80;99.90;;;;;;4963654;28;20042;-75
2021/12/28 00:41:52;;;;;;;17.30;12.05;;;3.80;99.90;;;;;;4966679;28;20117;-75
2021/12/28 00:44:18;;;;;;;17.55;12.18;;;3.80;99.90;;;;;;4967682;28;20039;-76
2021/12/28 00:46:44;;;;;;;17.65;12.07;;;;;;;;;;4960128;28;20027;-75
2021/12/28 00:49:10;;;;;;;15.75;11.52;;;3.80;99.90;;;;;;4955577;28;20027;-75
2021/12/28 00:51:37;;;;;;;15.75;11.63;;;3.80;99.90;;;;;;4963677;28;20041;-75
2021/12/28 00:54:03;;;;;;;16.83;11.82;;;3.90;99.90;;;;;;4969419;28;20040;-75
2021/12/28 00:56:29;;;;;;;18.60;12.02;;;3.80;99.90;;;;;;4974283;28;20069;-74
2021/12/28 00:58:54;;;;;;;18.17;12.07;;;3.80;99.90;;;;;;4958409;28;20055;-75
2021/12/28 01:01:20;;;;;;;15.60;11.48;;;3.90;99.90;;;;;;4966270;28;20026;-74
2021/12/28 01:03:46;;;;;;;17.50;12.18;;;3.90;99.90;;;;;;4962176;28;20034;-74
2021/12/28 01:06:12;;;;;;;16.80;11.85;;;3.90;99.90;;;;;;4971140;28;20041;-74
2021/12/28 01:08:38;;;;;;;18.15;12.13;;;3.90;99.90;;;;;;4968423;28;20029;-75
2021/12/28 01:11:05;;;;;;;18.10;12.95;;;4.00;99.90;;;;;;4964733;28;20083;-74
2021/12/28 01:13:31;;;;;;;19.63;12.45;;;4.00;99.90;;;;;;4960403;28;20110;-75
2021/12/28 01:15:57;;;;;;;15.75;11.70;;;4.00;99.90;;;;;;4961949;28;20062;-74
2021/12/28 01:18:23;;;;;;;18.80;12.65;;;4.00;99.90;;;;;;4967231;28;20086;-75
2021/12/28 01:20:49;;;;;;;17.83;12.40;;;4.00;99.90;;;;;;4966148;28;20039;-75
2021/12/28 01:23:15;;;;;;;18.95;12.18;;;4.00;99.90;;;;;;4965174;28;20034;-75
2021/12/28 01:25:41;;;;;;;16.58;11.88;;;4.00;99.90;;;;;;4967431;28;20035;-76
2021/12/28 01:28:08;;;;;;;17.58;12.32;;;4.00;99.90;;;;;;4966120;28;20395;-75
2021/12/28 01:30:34;;;;;;;16.48;11.88;;;3.90;99.90;;;;;;4964329;28;20031;-75
2021/12/28 01:33:00;;;;;;;17.08;12.20;;;3.90;99.90;;;;;;4960482;28;20023;-75
2021/12/28 01:35:28;;;;;;;18.02;12.32;;;4.00;99.90;;;;;;4966689;28;20491;-76
2021/12/28 01:37:53;;;;;;;17.70;12.35;;;4.00;99.90;;;;;;4959699;28;20042;-75
2021/12/28 01:40:23;;;;;;;15.88;11.52;;;3.90;99.90;;;;;;4969552;28;20399;-75
2021/12/28 01:43:17;;;;;;;16.35;11.75;;;3.90;99.90;;;;;;4966895;28;20022;-75
2021/12/28 01:45:51;;;;;;;15.27;10.77;;;3.90;99.90;;;;;;4954328;28;20027;-75
2021/12/28 01:48:23;;;;;;;16.98;11.43;;;3.90;99.90;;;;;;4963821;28;20042;-76
2021/12/28 01:50:52;;;;;;;14.38;9.32;;;3.90;99.90;;;;;;4962688;28;20077;-75
2021/12/28 01:53:18;;;;;;;18.48;13.20;;;4.00;99.90;;;;;;4952733;28;20058;-75
2021/12/28 01:55:47;;;;;;;17.27;12.25;;;4.00;99.90;;;;;;4963677;28;20486;-75
2021/12/28 01:58:13;;;;;;;17.85;12.10;;;4.00;99.90;;;;;;4962574;28;20078;-75
2021/12/28 02:00:40;;;;;;;19.35;11.73;;;4.00;99.90;;;;;;4962056;28;20034;-75
2021/12/28 02:03:11;;;;;;;18.10;13.02;;;4.00;99.90;;;;;;4963881;28;20035;-76
2021/12/28 02:05:37;;;;;;;16.42;12.25;;;4.00;99.90;;;;;;4959459;28;20122;-75
2021/12/28 02:08:04;;;;;;;18.23;12.93;;;4.10;99.90;;;;;;4956470;28;20039;-75
2021/12/28 02:10:30;;;;;;;17.85;12.32;;;4.10;99.90;;;;;;4955977;28;20065;-75
2021/12/28 02:12:56;;;;;;;17.30;12.38;;;4.10;99.90;;;;;;4963248;28;20033;-75
2021/12/28 02:15:21;;;;;;;19.10;13.57;;;4.10;99.90;;;;;;4964828;28;20026;-75
2021/12/28 02:17:47;;;;;;;18.50;13.48;;;4.20;99.90;;;;;;4966740;28;20034;-76
2021/12/28 02:20:16;;;;;;;19.52;13.13;;;4.20;99.90;;;;;;4964716;28;20518;-75
2021/12/28 02:22:42;;;;;;;19.20;13.00;;;4.30;99.90;;;;;;4963751;28;20039;-75
2021/12/28 02:25:09;;;;;;;18.02;12.70;;;4.20;99.90;;;;;;4950035;28;20039;-75
2021/12/28 02:27:36;;;;;;;15.63;11.15;;;4.30;99.90;;;;;;4954518;28;20027;-76
2021/12/28 02:30:05;;;;;;;13.82;10.65;;;4.20;99.90;;;;;;4959947;28;20031;-76
2021/12/28 02:32:31;;;;;;;16.58;11.95;;;4.20;99.90;;;;;;4955240;28;20035;-75
2021/12/28 02:34:58;;;;;;;15.90;11.85;;;4.20;99.90;;;;;;4959553;28;20038;-76
2021/12/28 02:37:24;;;;;;;13.88;10.40;;;4.20;99.90;;;;;;4960739;28;20117;-75
2021/12/28 02:39:50;;;;;;;14.73;11.13;;;4.20;99.90;;;;;;4959335;28;20116;-75
2021/12/28 02:42:18;;;;;;;15.30;11.07;;;4.10;99.90;;;;;;4953996;28;20043;-76
2021/12/28 02:44:44;;;;;;;16.45;11.90;;;4.10;99.90;;;;;;4959049;28;20569;-75
2021/12/28 02:47:15;;;;;;;15.98;11.50;;;4.10;99.90;;;;;;4953901;28;20050;-76
2021/12/28 02:49:41;;;;;;;15.75;11.52;;;4.10;99.90;;;;;;4955238;28;20825;-76
2021/12/28 02:52:09;;;;;;;15.43;11.00;;;4.10;99.90;;;;;;4958967;28;20027;-75
2021/12/28 02:54:38;;;;;;;13.57;10.55;;;4.10;99.90;;;;;;4956420;28;20034;-75
2021/12/28 02:57:04;;;;;;;14.32;10.75;;;4.10;99.90;;;;;;4960519;28;20031;-75
2021/12/28 02:59:30;;;;;;;14.95;10.73;;;4.10;99.90;;;;;;4954424;28;20031;-75
2021/12/28 03:01:55;;;;;;;14.40;10.93;;;4.10;99.90;;;;;;4959762;28;20031;-75
2021/12/28 03:04:23;;;;;;;16.55;12.48;;;4.00;99.90;;;;;;4957283;28;20055;-76
2021/12/28 03:06:49;;;;;;;16.42;12.55;;;4.10;99.90;;;;;;4955868;28;20105;-76
2021/12/28 03:09:15;;;;;;;15.55;11.80;;;4.10;99.90;;;;;;4957040;28;20022;-76
2021/12/28 03:11:41;;;;;;;17.23;11.90;;;4.10;99.90;;;;;;4954131;28;20042;-75
2021/12/28 03:14:07;;;;;;;16.63;12.13;;;4.10;99.90;;;;;;4952824;28;20019;-76
2021/12/28 03:16:33;;;;;;;16.50;12.40;;;4.10;99.90;;;;;;4956465;28;20078;-76
2021/12/28 03:18:59;;;;;;;19.63;14.15;;;4.10;99.90;;;;;;4959890;28;20046;-76
2021/12/28 03:21:25;;;;;;;18.17;12.65;;;4.10;99.90;;;;;;4958812;28;20108;-76
2021/12/28 03:23:51;;;;;;;17.35;12.32;;;4.20;99.90;;;;;;4957069;28;20531;-76
2021/12/28 03:26:18;;;;;;;16.30;12.13;;;4.20;99.90;;;;;;4954986;28;20031;-76
2021/12/28 03:28:45;;;;;;;15.27;12.13;;;4.20;99.90;;;;;;4960867;28;20101;-76
2021/12/28 03:31:17;;;;;;;18.55;13.07;;;4.20;99.90;;;;;;4960248;28;20023;-76
2021/12/28 03:33:45;;;;;;;17.42;12.20;;;4.20;99.90;;;;;;4955962;28;20573;-76
2021/12/28 03:36:11;;;;;;;18.35;13.18;;;4.20;99.90;;;;;;4955450;28;20143;-76
2021/12/28 03:38:40;;;;;;;17.77;12.32;;;4.20;99.90;;;;;;4961816;28;20506;-76
2021/12/28 03:41:08;;;;;;;19.55;13.52;;;4.20;99.90;;;;;;4956658;28;20031;-76
2021/12/28 03:43:38;;;;;;;18.45;12.85;;;4.10;99.90;;;;;;4961532;28;20173;-77
2021/12/28 03:46:04;;;;;;;17.83;13.18;;;4.20;99.90;;;;;;4955635;28;20099;-77
2021/12/28 03:48:30;;;;;;;17.25;12.65;;;4.10;99.90;;;;;;4959431;28;20019;-76
2021/12/28 03:50:56;;;;;;;15.80;12.10;;;4.10;99.90;;;;;;4959002;28;20026;-77
2021/12/28 03:53:21;;;;;;;15.45;11.85;;;4.10;99.90;;;;;;4960751;28;20015;-77
2021/12/28 03:55:47;;;;;;;18.65;12.35;;;4.20;99.90;;;;;;4957245;28;20023;-76
2021/12/28 03:58:13;;;;;;;19.23;13.35;;;4.20;99.90;;;;;;4953391;28;20738;-75
2021/12/28 04:00:44;;;;;;;18.33;13.23;;;4.20;99.90;;;;;;4953449;28;20118;-76
2021/12/28 04:03:11;;;;;;;16.65;11.60;;;4.20;99.90;;;;;;4967079;28;20046;-77
2021/12/28 04:05:38;;;;;;;18.63;12.45;;;4.20;99.90;;;;;;4957906;28;20171;-77
2021/12/28 04:08:05;;;;;;;17.38;13.05;;;4.20;99.90;;;;;;4961967;28;20089;-76
2021/12/28 04:10:31;;;;;;;15.70;11.55;;;4.20;99.90;;;;;;4969689;28;20491;-76
2021/12/28 04:12:59;;;;;;;33.50;11.75;;;4.20;99.90;;;;;;4968737;28;20102;-77
2021/12/28 04:15:25;;;;;;;19.20;10.85;;;4.20;99.90;;;;;;4960300;28;20046;-76
2021/12/28 04:17:51;;;;;;;15.15;11.30;;;4.20;99.90;;;;;;4963024;28;20129;-76
2021/12/28 04:20:18;;;;;;;15.38;11.43;;;4.20;99.90;;;;;;4960358;28;20501;-77
2021/12/28 04:22:45;;;;;;;18.70;13.18;;;4.30;99.90;;;;;;4959593;28;20506;-77
2021/12/28 04:25:12;;;;;;;18.88;12.57;;;4.30;99.90;;;;;;4955468;28;20122;-76
2021/12/28 04:27:38;;;;;;;19.15;13.23;;;4.30;99.90;;;;;;4956916;28;20035;-76
2021/12/28 04:30:07;;;;;;;16.60;12.60;;;4.30;99.90;;;;;;4957775;28;20016;-76
2021/12/28 04:32:32;;;;;;;18.73;13.10;;;4.30;99.90;;;;;;4961673;28;20100;-77
2021/12/28 04:34:58;;;;;;;21.42;13.88;;;4.40;99.90;;;;;;4959956;28;20121;-76
2021/12/28 04:37:24;;;;;;;21.00;13.98;;;4.40;99.90;;;;;;4957941;28;20027;-76
2021/12/28 04:39:50;;;;;;;20.13;13.48;;;4.40;99.90;;;;;;4967071;28;20030;-76
2021/12/28 04:42:16;;;;;;;19.38;13.63;;;4.40;99.90;;;;;;4956018;28;20027;-76
2021/12/28 04:44:41;;;;;;;19.50;12.55;;;4.40;99.90;;;;;;4956652;28;20045;-77
2021/12/28 04:47:07;;;;;;;19.00;12.52;;;4.40;99.90;;;;;;4971191;28;20122;-76
2021/12/28 04:49:33;;;;;;;19.45;13.27;;;4.30;99.90;;;;;;4966639;28;20034;-76
2021/12/28 04:51:59;;;;;;;18.75;12.60;;;4.40;99.90;;;;;;4957378;28;20079;-76
2021/12/28 04:54:25;;;;;;;20.25;12.90;;;4.40;99.90;;;;;;4963394;28;20550;-76
2021/12/28 04:56:50;;;;;;;20.20;12.85;;;4.40;99.90;;;;;;4967524;28;20117;-77
2021/12/28 04:59:17;;;;;;;21.77;13.38;;;4.40;99.90;;;;;;4965719;28;20019;-76
2021/12/28 05:01:44;;;;;;;19.60;12.60;;;4.40;99.90;;;;;;4961084;28;20030;-76
2021/12/28 05:04:10;;;;;;;18.50;12.68;;;4.50;99.90;;;;;;4956633;28;20031;-77
2021/12/28 05:06:36;;;;;;;21.60;12.45;;;4.50;99.90;;;;;;4962974;28;20050;-76
2021/12/28 05:09:08;;;;;;;19.90;12.57;;;4.50;99.90;;;;;;4963637;28;20037;-76
2021/12/28 05:11:35;;;;;;;15.20;10.23;;;4.50;99.90;;;;;;4968567;28;20022;-75
2021/12/28 05:14:02;;;;;;;21.45;11.68;;;4.50;99.90;;;;;;4965091;28;20026;-76
2021/12/28 05:16:33;;;;;;;19.95;12.18;;;4.50;99.90;;;;;;4971867;28;20427;-76
2021/12/28 05:18:59;;;;;;;18.27;13.02;;;4.50;99.90;;;;;;4967977;28;20062;-76
2021/12/28 05:21:25;;;;;;;27.58;12.50;;;4.60;99.90;;;;;;4961205;28;20038;-76
2021/12/28 05:23:51;;;;;;;22.45;12.02;;;4.60;99.90;;;;;;4966833;28;20027;-76
2021/12/28 05:26:17;;;;;;;20.30;12.50;;;4.70;99.90;;;;;;4969314;28;20042;-76
2021/12/28 05:28:42;;;;;;;22.25;12.38;;;4.70;99.90;;;;;;4965155;28;20027;-77
2021/12/28 05:31:08;;;;;;;21.73;11.45;;;4.70;99.90;;;;;;4968115;28;20031;-76
2021/12/28 05:33:34;;;;;;;22.67;11.32;;;4.70;99.90;;;;;;4967063;28;20035;-76
2021/12/28 05:36:00;;;;;;;16.55;10.45;;;4.80;99.90;;;;;;4958638;28;20038;-77
2021/12/28 05:38:26;;;;;;;17.70;10.80;;;;;;;;;;4966856;28;20030;-76
2021/12/28 05:40:52;;;;;;;24.67;12.18;;;5.00;99.90;;;;;;4966877;28;20112;-77
2021/12/28 05:43:17;;;;;;;20.60;11.50;;;4.90;99.90;;;;;;4966457;28;20034;-77
2021/12/28 05:45:44;;;;;;;19.90;11.45;;;;;;;;;;4961225;28;20031;-76
2021/12/28 05:48:10;;;;;;;21.58;12.10;;;4.90;99.90;;;;;;4966609;28;20022;-76
2021/12/28 05:50:36;;;;;;;23.92;11.70;;;4.90;99.90;;;;;;4958750;28;20045;-76
2021/12/28 05:53:02;;;;;;;25.38;11.85;;;4.90;99.90;;;;;;4961227;28;20029;-76
2021/12/28 05:55:28;;;;;;;23.20;11.90;;;5.00;99.90;;;;;;4964329;28;20039;-76
2021/12/28 05:57:54;;;;;;;21.05;11.55;;;5.00;99.90;;;;;;4955674;28;20023;-76
2021/12/28 06:00:19;;;;;;;22.23;10.55;;;4.90;99.90;;;;;;4963649;28;20385;-76
2021/12/28 06:02:45;;;;;;;17.58;9.75;;;5.00;99.90;;;;;;4961131;28;20038;-76
2021/12/28 06:05:11;;;;;;;19.30;10.00;;;5.00;99.90;;;;;;4955382;28;20031;-76
2021/12/28 06:07:37;;;;;;;18.98;10.18;;;5.00;99.90;;;;;;4952657;28;20047;-76
2021/12/28 06:10:04;;;;;;;16.80;9.68;;;5.00;99.90;;;;;;4955861;28;20618;-76
2021/12/28 06:12:30;;;;;;;28.13;10.52;;;5.00;99.90;;;;;;4955477;28;20386;-77
2021/12/28 06:14:56;;;;;;;21.25;10.88;;;5.00;99.90;;;;;;4961418;28;20035;-76
2021/12/28 06:17:22;;;;;;;22.20;10.18;;;5.00;99.90;;;;;;4954607;28;20525;-76
2021/12/28 06:19:48;;;;;;;20.38;10.98;;;5.00;99.90;;;;;;4958248;28;20506;-76
2021/12/28 06:22:14;;;;;;;20.17;10.95;;;5.00;99.90;;;;;;4956383;28;20039;-76
2021/12/28 06:24:40;;;;;;;17.63;10.85;;;5.10;99.90;;;;;;4956842;28;20034;-76
2021/12/28 06:27:05;;;;;;;19.60;10.48;;;5.10;99.90;;;;;;4958703;28;20030;-77
2021/12/28 06:29:31;;;;;;;22.60;10.85;;;5.20;99.90;;;;;;4963286;28;20030;-76
2021/12/28 06:31:57;;;;;;;19.23;10.82;;;5.20;99.90;;;;;;4956970;28;20392;-77
2021/12/28 06:34:22;;;;;;;21.67;10.05;;;5.20;99.90;;;;;;4954911;28;20027;-76
2021/12/28 06:36:48;;;;;;;23.15;10.80;;;5.20;99.90;;;;;;4958393;28;20724;-76
2021/12/28 06:39:14;;;;;;;22.85;10.23;;;5.20;99.90;;;;;;4956682;28;20023;-76
2021/12/28 06:41:39;;;;;;;21.27;9.93;;;5.20;99.90;;;;;;4954115;28;20039;-76
2021/12/28 06:44:09;;;;;;;19.52;9.80;;;5.30;99.90;;;;;;4958276;28;20023;-76
2021/12/28 06:46:38;;;;;;;21.73;10.43;;;5.30;99.90;;;;;;4956518;28;20029;-76
2021/12/28 06:49:04;;;;;;;18.55;9.73;;;5.30;99.90;;;;;;4959364;28;20388;-76
2021/12/28 06:51:31;;;;;;;21.83;9.80;;;5.30;99.90;;;;;;4962670;28;20034;-76
2021/12/28 06:53:56;;;;;;;25.85;11.05;;;5.30;99.90;;;;;;4959229;28;20031;-76
2021/12/28 06:56:22;;;;;;;19.45;10.23;;;5.30;99.90;;;;;;4955162;28;20034;-76
2021/12/28 06:58:48;;;;;;;22.85;10.48;;;5.30;99.90;;;;;;4268541;28;10000809;-76
2021/12/28 07:01:13;;;;;;;23.40;9.80;;;5.40;99.90;;;;;;4944381;28;20031;-76
2021/12/28 07:03:39;;;;;;;21.17;9.55;;;5.40;99.90;;;;;;4941451;28;20039;-76
2021/12/28 07:06:06;;;;;;;20.10;9.20;;;5.30;99.90;;;;;;4942926;28;20038;-74
2021/12/28 07:08:36;;;;;;;22.27;9.40;;;5.40;99.90;;;;;;4950937;28;20455;-76
2021/12/28 07:11:02;;;;;;;18.25;8.48;;;5.40;99.90;;;;;;4950663;28;20536;-76
2021/12/28 07:13:28;;;;;;;20.40;9.32;;;5.40;99.90;;;;;;4957270;28;20034;-76
2021/12/28 07:15:54;;;;;;;23.13;10.50;;;5.40;99.90;;;;;;4951176;28;20058;-76
2021/12/28 07:18:19;;;;;;;16.85;8.95;;;5.40;99.90;;;;;;4948103;28;20033;-76
2021/12/28 07:20:45;;;;;;;20.42;8.98;;;5.40;99.90;;;;;;4956187;28;20042;-76
2021/12/28 07:23:10;;;;;;;20.95;8.82;;;5.40;99.90;;;;;;4944805;28;20034;-75
2021/12/28 07:25:36;;;;;;;19.63;9.52;;;5.40;99.90;;;;;;4949483;28;20160;-76
2021/12/28 07:28:03;;;;;;;18.30;9.20;;;5.40;99.90;;;;;;4955466;28;20027;-78
2021/12/28 07:30:29;;;;;;;14.85;8.82;;;5.40;99.90;;;;;;4947182;28;20625;-76
2021/12/28 07:32:54;;;;;;;17.42;8.88;;;5.40;99.90;;;;;;4962900;28;20027;-77
2021/12/28 07:35:20;;;;;;;16.25;8.35;;;5.40;99.90;;;;;;4972180;28;20038;-77
2021/12/28 07:37:49;;;;;;;18.95;9.23;;;5.40;99.90;;;;;;4958105;28;20082;-77
2021/12/28 07:40:15;;;;;;;18.80;8.52;;;5.30;99.90;;;;;;4954497;28;20165;-75
2021/12/28 07:42:40;;;;;;;16.27;7.80;;;5.40;99.90;;;;;;4955428;28;20117;-76
2021/12/28 07:45:09;;;;;;;22.17;8.82;;;5.40;99.90;;;;;;4958571;28;20775;-76
2021/12/28 07:47:35;;;;;;;21.42;8.60;;;5.40;99.90;;;;;;4954068;28;20101;-76
2021/12/28 07:50:00;;;;;;;13.15;7.70;;;5.40;99.90;;;;;;4964463;28;20423;-76
2021/12/28 07:52:26;;;;;;;15.35;8.10;;;5.50;99.90;;;;;;4960121;28;20023;-76
2021/12/28 07:54:52;;;;;;;18.05;8.40;;;5.50;99.90;;;;;;4968361;28;20035;-76
2021/12/28 07:57:18;;;;;;;15.48;8.25;;;5.50;99.90;;;;;;4963246;28;20042;-76
2021/12/28 07:59:44;;;;;;;13.70;7.70;;;5.50;99.90;;;;;;4965742;28;20438;-76
2021/12/28 08:02:10;;;;;;;14.98;7.72;;;5.60;99.90;;;;;;4965927;28;20027;-77
2021/12/28 08:04:35;;;;;;;15.45;7.80;;;5.60;99.90;;;;;;4967708;28;20076;-77
2021/12/28 08:07:01;;;;;;;15.73;7.70;;;5.60;99.90;;;;;;4969439;28;20050;-76
2021/12/28 08:09:27;;;;;;;16.58;7.75;;;5.60;99.90;;;;;;4969953;28;20474;-76
2021/12/28 08:11:52;;;;;;;15.20;7.05;;;5.60;99.90;;;;;;4966149;28;20038;-76
2021/12/28 08:14:18;;;;;;;16.75;7.18;;;5.60;99.90;;;;;;4965604;28;20114;-76
2021/12/28 08:16:45;;;;;;;11.65;6.78;;;5.60;99.90;;;;;;4962238;28;20090;-76
2021/12/28 08:19:10;;;;;;;11.15;6.20;;;5.70;99.90;;;;;;4963964;28;20035;-76
2021/12/28 08:21:37;;;;;;;10.63;6.28;;;5.70;99.90;;;;;;4960068;28;20041;-76
2021/12/28 08:24:05;;;;;;;12.00;6.55;;;5.70;99.90;;;;;;4967277;28;20065;-76
2021/12/28 08:26:30;;;;;;;14.93;6.05;;;5.70;99.90;;;;;;4963089;28;20027;-76
2021/12/28 08:28:56;;;;;;;12.13;5.95;;;5.80;99.90;;;;;;4964559;28;20574;-76
2021/12/28 08:31:22;;;;;;;8.98;5.38;;;5.80;99.90;;;;;;4965168;28;20051;-75
2021/12/28 08:33:48;;;;;;;7.50;4.90;;;5.80;99.90;;;;;;4965134;28;20114;-75
2021/12/28 08:36:14;;;;;;;10.98;5.80;;;5.90;99.90;;;;;;4967779;28;20031;-75
2021/12/28 08:38:41;;;;;;;8.80;5.50;;;5.90;99.90;;;;;;4967291;28;20042;-75
2021/12/28 08:41:07;;;;;;;10.20;6.00;;;5.90;99.90;;;;;;4967103;28;20183;-75
2021/12/28 08:43:32;;;;;;;8.90;5.72;;;6.00;99.90;;;;;;4964122;28;20032;-75
2021/12/28 08:45:58;;;;;;;10.40;4.95;;;6.00;99.90;;;;;;4969918;28;20041;-76
2021/12/28 08:48:24;;;;;;;7.93;4.82;;;6.00;99.90;;;;;;4967122;28;20086;-78
2021/12/28 08:50:50;;;;;;;11.68;5.07;;;6.00;99.90;;;;;;4964771;28;20034;-78
2021/12/28 08:53:16;;;;;;;7.10;4.90;;;6.00;99.90;;;;;;4967890;28;20027;-78
2021/12/28 08:55:42;;;;;;;8.77;4.82;;;6.00;99.90;;;;;;4968144;28;20407;-77
2021/12/28 08:58:08;;;;;;;8.45;5.20;;;6.10;99.90;;;;;;4969029;28;20027;-78
2021/12/28 09:00:36;;;;;;;12.00;5.30;;;6.10;99.90;;;;;;4966400;28;20118;-77
2021/12/28 09:03:03;;;;;;;7.00;4.97;;;6.10;99.90;;;;;;4968231;28;20030;-78
2021/12/28 09:05:29;;;;;;;8.52;4.97;;;6.10;99.90;;;;;;4963167;28;20153;-77
2021/12/28 09:07:55;;;;;;;10.52;5.88;;;6.10;99.90;;;;;;4967329;28;20053;-78
2021/12/28 09:10:22;;;;;;;9.52;4.63;;;6.20;99.90;;;;;;4964999;28;20027;-77
2021/12/28 09:12:48;;;;;;;7.43;4.50;;;6.20;99.90;;;;;;4959731;28;20105;-77
2021/12/28 09:15:14;;;;;;;8.38;4.07;;;6.20;99.90;;;;;;4962914;28;20111;-77
2021/12/28 09:17:41;;;;;;;7.45;4.30;;;6.30;99.90;;;;;;4964323;28;20105;-77
2021/12/28 09:20:11;;;;;;;6.60;4.20;;;6.30;99.90;;;;;;4965156;28;20031;-77
2021/12/28 09:22:36;;;;;;;8.02;4.65;;;6.30;99.90;;;;;;4959086;28;20514;-77
2021/12/28 09:25:03;;;;;;;7.65;4.45;;;6.30;99.90;;;;;;4965462;28;20042;-77
2021/12/28 09:27:29;;;;;;;7.65;4.18;;;;;;;;;;4968996;28;20042;-77
2021/12/28 09:29:55;;;;;;;7.40;4.07;;;6.50;99.90;;;;;;4961740;28;20395;-77
2021/12/28 09:32:20;;;;;;;6.15;4.00;;;6.50;99.90;;;;;;4967500;28;20023;-76
2021/12/28 09:34:50;;;;;;;8.27;4.40;;;6.50;99.90;;;;;;4969504;28;20023;-75
2021/12/28 09:37:17;;;;;;;7.38;3.72;;;6.50;99.90;;;;;;4965235;28;20035;-75
2021/12/28 09:39:42;;;;;;;7.45;3.60;;;6.50;99.90;;;;;;4962030;28;20038;-78
2021/12/28 09:42:08;;;;;;;8.20;3.53;;;6.50;99.90;;;;;;4966469;28;20035;-76
2021/12/28 09:44:35;;;;;;;8.60;3.53;;;6.50;99.90;;;;;;4961270;28;20077;-76
2021/12/28 09:47:02;;;;;;;4.88;3.10;;;6.60;99.90;;;;;;4964928;28;20471;-77
2021/12/28 09:49:28;;;;;;;5.63;3.13;;;6.60;99.90;;;;;;4961327;28;20019;-76
2021/12/28 09:51:55;;;;;;;6.93;3.03;;;6.70;99.90;;;;;;4960375;28;20471;-76
2021/12/28 09:54:26;;;;;;;7.88;3.22;;;6.80;99.90;;;;;;4962172;28;20031;-75
2021/12/28 09:56:55;;;;;;;6.00;3.00;;;6.90;99.90;;;;;;4968330;28;20130;-78
2021/12/28 09:59:21;;;;;;;5.45;2.72;;;6.90;99.90;;;;;;4963737;28;20034;-77
2021/12/28 10:01:47;;;;;;;5.18;3.17;;;6.90;99.90;;;;;;4957831;28;20078;-77
2021/12/28 10:04:13;;;;;;;5.15;2.70;;;6.90;99.90;;;;;;4956191;28;20033;-78
2021/12/28 10:06:39;;;;;;;5.55;2.58;;;7.00;99.90;;;;;;4960808;28;20042;-77
2021/12/28 10:09:10;;;;;;;3.53;2.50;;;7.00;99.90;;;;;;4963877;28;20034;-77
2021/12/28 10:11:53;;;;;;;3.53;2.30;;;7.00;99.90;;;;;;4957150;28;20051;-78
2021/12/28 10:14:25;;;;;;;5.38;2.50;;;7.00;99.90;;;;;;4966731;28;20061;-78
2021/12/28 10:17:02;;;;;;;4.85;2.10;;;7.10;99.90;;;;;;4963931;28;20047;-77
2021/12/28 10:19:48;;;;;;;5.13;2.10;;;7.10;99.90;;;;;;4957952;28;20076;-77
2021/12/28 10:22:44;;;;;;;6.63;2.90;;;7.10;99.90;;;;;;4957416;28;20043;-77
2021/12/28 10:25:16;;;;;;;4.82;2.05;;;7.10;99.90;;;;;;4961372;28;20122;-78
2021/12/28 10:27:45;;;;;;;5.15;1.88;;;7.10;99.90;;;;;;4959794;28;20190;-77
2021/12/28 10:30:22;;;;;;;7.70;4.78;;;7.10;99.90;;;;;;4960126;28;20051;-78
2021/12/28 10:32:50;;;;;;;10.15;6.85;;;;;;;;;;4955094;28;20702;-77
2021/12/28 10:35:18;;;;;;;14.93;9.07;;;;;;;;;;4960360;28;20503;-76
2021/12/28 10:37:46;;;;;;;29.90;16.33;;;;;;;;;;4957547;28;20035;-76
2021/12/28 10:40:14;;;;;;;24.45;14.60;;;;;;;;;;4958343;28;20031;-76
2021/12/28 10:42:39;;;;;;;9.18;6.85;;;;;;;;;;4960298;28;20124;-77
2021/12/28 10:45:07;;;;;;;5.10;2.97;;;;;;;;;;4957440;28;20118;-76
2021/12/28 10:47:33;;;;;;;2.10;1.88;;;;;;;;;;4956895;28;20525;-76
2021/12/28 10:50:07;;;;;;;9.77;4.10;;;;;;;;;;4964053;28;20022;-76
2021/12/28 10:52:38;;;;;;;5.50;2.50;;;7.30;99.90;;;;;;4958773;28;20035;-76
2021/12/28 10:55:36;;;;;;;3.58;1.92;;;7.30;99.90;;;;;;4956551;28;20106;-76
2021/12/28 10:58:03;;;;;;;5.15;1.70;;;7.30;99.90;;;;;;4925720;28;20031;-76
2021/12/28 11:00:35;;;;;;;2.63;1.40;;;7.30;99.90;;;;;;4954771;28;20035;-76
2021/12/28 11:03:28;;;;;;;2.67;1.50;;;7.30;99.90;;;;;;4957329;28;20035;-76
2021/12/28 11:05:56;;;;;;;2.75;1.58;;;7.30;99.90;;;;;;4954862;28;20045;-76
2021/12/28 11:08:24;;;;;;;1.75;1.20;;;7.30;99.90;;;;;;4954788;28;20149;-76
2021/12/28 11:10:57;;;;;;;2.38;1.30;;;7.30;99.90;;;;;;4958170;28;20034;-77
2021/12/28 11:13:26;;;;;;;2.97;1.38;;;7.30;99.90;;;;;;4960200;28;20115;-77
2021/12/28 11:15:52;;;;;;;2.83;1.25;;;7.20;99.90;;;;;;4955374;28;20046;-77
2021/12/28 11:18:33;;;;;;;3.88;1.58;;;7.30;99.90;;;;;;4961872;28;20030;-76
2021/12/28 11:21:20;;;;;;;2.20;1.55;;;7.30;99.90;;;;;;4963641;28;20117;-77
2021/12/28 11:23:54;;;;;;;4.88;1.70;;;7.30;99.90;;;;;;4954111;28;20063;-77
2021/12/28 11:26:37;;;;;;;2.33;1.80;;;7.20;99.90;;;;;;4968202;28;20061;-77
2021/12/28 11:29:08;;;;;;;3.65;2.42;;;7.20;99.90;;;;;;4959155;28;20487;-77
2021/12/28 11:31:46;;;;;;;3.05;2.05;;;7.20;99.90;;;;;;4959220;28;20024;-77
2021/12/28 11:34:23;;;;;;;5.25;2.17;;;7.20;99.90;;;;;;4962672;28;20027;-78
2021/12/28 11:36:53;;;;;;;3.25;1.95;;;7.20;99.90;;;;;;4957101;28;20058;-77
2021/12/28 11:39:22;;;;;;;2.60;1.60;;;7.20;99.90;;;;;;4954521;28;20038;-77
2021/12/28 11:41:49;;;;;;;2.38;1.75;;;7.30;99.90;;;;;;4959820;28;20071;-77
2021/12/28 11:44:17;;;;;;;5.15;2.35;;;7.30;99.90;;;;;;4964738;28;20483;-77
2021/12/28 11:46:45;;;;;;;6.28;2.00;;;7.30;99.90;;;;;;4965819;28;20487;-77
2021/12/28 11:49:13;;;;;;;3.85;2.05;;;7.30;99.90;;;;;;4963624;28;21195;-77
2021/12/28 11:51:45;;;;;;;3.38;2.10;;;7.30;99.90;;;;;;4958553;28;20035;-76
2021/12/28 11:54:14;;;;;;;2.85;1.90;;;7.30;99.90;;;;;;4960826;28;20031;-76
2021/12/28 11:56:43;;;;;;;2.35;1.30;;;7.30;99.90;;;;;;4963029;28;20172;-77
2021/12/28 11:59:19;;;;;;;3.85;1.50;;;7.40;99.90;;;;;;4961636;28;20045;-76
2021/12/28 12:01:52;;;;;;;1.35;1.17;;;;;;;;;;4960851;28;20038;-75
2021/12/28 12:04:30;;;;;;;2.05;1.30;;;;;;;;;;4961290;28;20175;-75
2021/12/28 12:07:17;;;;;;;1.75;0.80;;;7.50;99.90;;;;;;4967513;28;20049;-75
2021/12/28 12:09:49;;;;;;;2.95;1.10;;;7.50;99.90;;;;;;4959724;28;20054;-76
2021/12/28 12:12:19;;;;;;;1.20;1.00;;;7.60;99.90;;;;;;4963501;28;20026;-77
2021/12/28 12:14:50;;;;;;;1.45;1.10;;;7.60;99.90;;;;;;4961993;28;20081;-78
2021/12/28 12:17:28;;;;;;;1.85;1.20;;;7.60;99.90;;;;;;4967652;28;20037;-78
2021/12/28 12:20:00;;;;;;;1.20;1.10;;;7.60;99.90;;;;;;4963542;28;20057;-78
2021/12/28 12:22:39;;;;;;;1.27;1.00;;;7.60;99.90;;;;;;4962508;28;20031;-75
2021/12/28 12:25:13;;;;;;;3.38;1.60;;;7.60;99.90;;;;;;4964925;28;20031;-78
2021/12/28 12:27:50;;;;;;;1.80;1.33;;;7.60;99.90;;;;;;4961907;28;20037;-78
2021/12/28 12:30:25;;;;;;;1.10;1.00;;;7.60;99.90;;;;;;4960712;28;20026;-77
2021/12/28 12:35:46;;;;;;;2.50;2.28;;;7.60;99.90;;;;;;4962574;28;20034;-77
2021/12/28 12:38:12;;;;;;;1.98;1.75;;;7.70;99.90;;;;;;4960476;28;20122;-78
2021/12/28 12:41:09;;;;;;;3.58;1.85;;;7.70;99.90;;;;;;4954907;28;20130;-78
2021/12/28 12:43:40;;;;;;;1.83;1.73;;;7.70;99.90;;;;;;4961779;28;20070;-77
2021/12/28 12:46:10;;;;;;;2.75;2.00;;;7.70;99.90;;;;;;4962013;28;20038;-78
2021/12/28 12:48:35;;;;;;;3.03;2.67;;;7.70;99.90;;;;;;4965533;28;20177;-77
2021/12/28 12:51:22;;;;;;;1.70;1.60;;;7.70;99.90;;;;;;4963741;28;20491;-78
2021/12/28 12:54:01;;;;;;;2.63;1.55;;;7.70;99.90;;;;;;4959177;28;20775;-78
2021/12/28 12:56:50;;;;;;;2.30;1.80;;;7.70;99.90;;;;;;4964753;28;20491;-78